Time;durP1;ratioP1;P1;durP2;ratioP2;P2;SDS_P1;SDS_P2;PMS_P1;PMS_P2;Temp;Humidity;BMP_temperature;BMP_pressure;BME280_temperature;BME280_humidity;BME280_pressure;Samples;Min_cycle;Max_cycle;Signal;HPM_P1;HPM_P2
2022/04/11 00:00:01;;;;;;;6.03;2.10;;;;;;;2.09;72.29;100911.22;1762611;80;20981;-75
2022/04/11 00:02:28;;;;;;;5.30;2.33;;;;;;;2.09;72.47;100903.46;1754963;81;21010;-75
2022/04/11 00:04:55;;;;;;;4.97;2.07;;;;;;;2.10;72.57;100904.32;1744695;81;20985;-75
2022/04/11 00:07:24;;;;;;;6.07;2.60;;;;;;;2.11;72.69;100908.66;1749895;81;21147;-75
2022/04/11 00:09:52;;;;;;;6.83;2.30;;;;;;;2.12;72.62;100909.94;1758111;81;21470;-75
2022/04/11 00:12:20;;;;;;;5.43;2.03;;;;;;;2.11;72.52;100906.93;1748787;81;21019;-75
2022/04/11 00:14:47;;;;;;;6.07;2.50;;;;;;;2.10;72.76;100905.62;1759941;81;21045;-75
2022/04/11 00:17:14;;;;;;;5.63;1.97;;;;;;;2.10;72.87;100901.30;1747945;81;21513;-75
2022/04/11 00:19:43;;;;;;;7.40;2.50;;;;;;;2.14;72.99;100902.20;1751320;81;21102;-75
2022/04/11 00:22:10;;;;;;;4.27;2.03;;;;;;;2.13;72.98;100897.87;1752486;81;21009;-76
2022/04/11 00:24:37;;;;;;;6.80;2.27;;;;;;;2.15;72.98;100900.05;1749055;81;21048;-75
2022/04/11 00:27:05;;;;;;;6.70;1.73;;;;;;;2.15;73.04;100895.73;1748242;81;21084;-76
2022/04/11 00:29:33;;;;;;;3.60;1.87;;;;;;;2.16;73.13;100889.72;1746521;81;20976;-75
2022/04/11 00:31:59;;;;;;;5.30;1.80;;;;;;;2.18;73.10;100892.30;1742254;81;21140;-75
2022/04/11 00:34:26;;;;;;;3.03;1.53;;;;;;;2.19;73.15;100894.91;1745724;81;20905;-76
2022/04/11 00:36:57;;;;;;;3.90;1.83;;;;;;;2.21;73.04;100897.05;1752057;81;21498;-75
2022/04/11 00:39:25;;;;;;;3.03;1.53;;;;;;;2.23;73.20;100893.19;1762636;80;21028;-76
2022/04/11 00:41:52;;;;;;;4.33;2.10;;;;;;;2.27;73.36;100902.68;1750539;81;21008;-76
2022/04/11 00:44:19;;;;;;;4.50;2.00;;;;;;;2.28;73.25;100904.43;1751691;81;21099;-76
2022/04/11 00:46:46;;;;;;;4.20;1.70;;;;;;;2.31;73.31;100912.20;1752972;81;21056;-76
2022/04/11 00:49:13;;;;;;;5.00;2.00;;;;;;;2.32;73.34;100910.04;1754664;81;20997;-76
2022/04/11 00:51:40;;;;;;;4.93;1.97;;;;;;;2.33;73.36;100912.19;1756189;81;21033;-84
2022/04/11 00:54:08;;;;;;;6.03;1.80;;;;;;;2.32;73.30;100910.47;1754182;81;21005;-75
2022/04/11 00:56:36;;;;;;;6.27;2.83;;;;;;;2.31;73.33;100912.20;1751922;80;21108;-76
2022/04/11 00:59:03;;;;;;;4.83;2.30;;;;;;;2.31;73.49;100912.64;1745092;81;20930;-76
2022/04/11 01:01:31;;;;;;;4.53;2.23;;;;;;;2.31;73.40;100920.39;1753387;81;20978;-76
2022/04/11 01:03:58;;;;;;;5.97;2.43;;;;;;;2.30;73.74;100921.23;1755383;81;21057;-76
2022/04/11 01:06:26;;;;;;;5.13;2.00;;;;;;;2.32;73.77;100917.80;1756586;81;21029;-76
2022/04/11 01:08:54;;;;;;;5.77;2.33;;;;;;;2.32;73.87;100919.09;1752596;81;21538;-76
2022/04/11 01:11:22;;;;;;;7.40;2.07;;;;;;;2.33;73.92;100919.95;1741440;81;21056;-87
2022/04/11 01:13:49;;;;;;;5.50;2.43;;;;;;;2.36;73.97;100922.59;1750020;81;20982;-76
2022/04/11 01:16:28;;;;;;;5.17;2.23;;;;;;;2.35;73.92;100920.40;1747440;81;21012;-78
2022/04/11 01:18:55;;;;;;;5.47;2.10;;;;;;;2.34;73.89;100928.17;1754357;81;21013;-76
2022/04/11 01:21:28;;;;;;;6.67;2.10;;;;;;;2.32;74.01;100916.50;1744681;80;21342;-76
2022/04/11 01:23:56;;;;;;;7.10;2.50;;;;;;;2.32;74.00;100924.27;1743654;81;21107;-76
2022/04/11 01:26:25;;;;;;;5.07;2.00;;;;;;;2.31;74.02;100916.52;1758180;81;20982;-76
2022/04/11 01:28:54;;;;;;;5.67;2.70;;;;;;;2.31;74.16;100916.52;1754752;80;20974;-76
2022/04/11 01:31:21;;;;;;;5.93;2.37;;;;;;;2.30;74.17;100916.06;1757534;81;21477;-76
2022/04/11 01:33:49;;;;;;;7.07;2.53;;;;;;;2.29;74.21;100921.67;1724864;81;21066;-76
2022/04/11 01:36:18;;;;;;;4.73;2.43;;;;;;;2.28;74.32;100916.07;1752809;81;21027;-76
2022/04/11 01:38:45;;;;;;;9.10;2.70;;;;;;;2.29;74.44;100912.61;1747013;81;21019;-76
2022/04/11 01:41:12;;;;;;;5.17;2.30;;;;;;;2.31;74.54;100916.08;1750316;81;21510;-76
2022/04/11 01:43:39;;;;;;;6.13;2.57;;;;;;;2.32;74.64;100913.92;1751677;81;21055;-76
2022/04/11 01:46:07;;;;;;;5.60;2.37;;;;;;;2.35;74.67;100916.95;1758079;80;21071;-81
2022/04/11 01:48:39;;;;;;;8.60;3.07;;;;;;;2.37;74.70;100918.69;1755545;81;21450;-76
2022/04/11 01:51:06;;;;;;;7.20;2.60;;;;;;;2.40;74.82;100916.55;1751761;81;21485;-76
2022/04/11 01:53:34;;;;;;;7.33;2.40;;;;;;;2.41;74.81;100921.75;1751817;81;21005;-76
2022/04/11 01:56:03;;;;;;;4.80;2.40;;;;;;;2.45;74.90;100913.56;1754486;81;21072;-76
2022/04/11 01:58:32;;;;;;;5.45;2.17;;;;;;;2.49;74.92;100919.17;1751332;80;21562;-76
2022/04/11 02:01:00;;;;;;;7.47;1.80;;;;;;;2.52;74.80;100915.73;1749428;80;21104;-76
2022/04/11 02:03:29;;;;;;;5.60;1.80;;;;;;;2.55;74.75;100917.03;1748514;81;20965;-76
2022/04/11 02:05:56;;;;;;;5.10;1.87;;;;;;;2.59;74.75;100913.62;1729557;81;21026;-76
2022/04/11 02:08:24;;;;;;;7.13;1.53;;;;;;;2.62;74.67;100913.62;1747554;80;21007;-76
2022/04/11 02:10:54;;;;;;;4.72;1.62;;;;;;;2.64;74.56;100917.95;1751699;81;21293;-76
2022/04/11 02:13:21;;;;;;;5.83;1.50;;;;;;;2.70;74.57;100913.66;1746432;80;20992;-76
2022/04/11 02:15:48;;;;;;;6.30;1.50;;;;;;;2.74;74.47;100917.97;1754701;81;21030;-76
2022/04/11 02:18:15;;;;;;;3.27;1.43;;;;;;;2.78;74.36;100921.02;1756060;81;21874;-76
2022/04/11 02:20:43;;;;;;;4.47;1.27;;;;;;;2.81;74.35;100918.44;1746574;81;20992;-76
2022/04/11 02:23:10;;;;;;;4.27;1.50;;;;;;;2.86;74.23;100922.77;1753841;81;21204;-76
2022/04/11 02:25:40;;;;;;;7.00;1.53;;;;;;;2.91;74.28;100922.80;1749279;81;21071;-76
2022/04/11 02:28:09;;;;;;;5.22;1.52;;;;;;;2.96;74.25;100925.37;1747502;81;21066;-76
2022/04/11 02:30:37;;;;;;;4.67;1.27;;;;;;;2.98;74.12;100927.11;1720994;82;21520;-76
2022/04/11 02:33:05;;;;;;;5.43;1.57;;;;;;;3.02;74.10;100922.39;1699366;84;21017;-76
2022/04/11 02:35:33;;;;;;;4.03;1.43;;;;;;;3.06;73.98;100924.55;1697209;84;21128;-76
2022/04/11 02:38:01;;;;;;;5.47;1.70;;;;;;;3.08;73.94;100928.02;1753213;80;20992;-76
2022/04/11 02:40:28;;;;;;;5.13;1.57;;;;;;;3.10;73.86;100918.09;1751963;81;21537;-76
2022/04/11 02:43:06;;;;;;;4.70;2.00;;;;;;;3.11;73.85;100918.52;1749211;81;21083;-76
2022/04/11 02:45:35;;;;;;;8.43;2.27;;;;;;;3.14;73.83;100917.66;1744031;81;21355;-76
2022/04/11 02:48:03;;;;;;;6.30;2.03;;;;;;;3.15;73.77;100912.04;1745318;81;21092;-76
2022/04/11 02:50:32;;;;;;;8.00;2.60;;;;;;;3.17;73.75;100920.25;1748996;81;21001;-76
2022/04/11 02:53:01;;;;;;;4.40;2.50;;;;;;;3.19;73.71;100911.17;1747560;81;20972;-76
2022/04/11 02:55:29;;;;;;;8.60;2.53;;;;;;;3.20;73.68;100917.66;1754245;81;20990;-76
2022/04/11 02:57:57;;;;;;;5.43;2.50;;;;;;;3.23;73.67;100911.19;1750908;80;21032;-76
2022/04/11 03:00:24;;;;;;;7.43;2.53;;;;;;;3.24;73.55;100914.63;1753470;81;21202;-76
2022/04/11 03:02:53;;;;;;;6.17;2.60;;;;;;;3.21;73.44;100916.78;1756995;81;20987;-76
2022/04/11 03:05:21;;;;;;;5.70;2.20;;;;;;;3.22;73.29;100926.74;1753559;81;21440;-76
2022/04/11 03:07:48;;;;;;;3.93;2.13;;;;;;;3.19;73.33;100923.72;1746771;81;20994;-77
2022/04/11 03:10:16;;;;;;;5.70;2.20;;;;;;;3.18;73.25;100922.41;1753875;81;21039;-76
2022/04/11 03:12:43;;;;;;;6.97;1.90;;;;;;;3.14;73.21;100917.66;1754138;81;21332;-76
2022/04/11 03:15:11;;;;;;;8.57;2.93;;;;;;;3.13;73.26;100927.16;1754772;81;21257;-76
2022/04/11 03:17:39;;;;;;;7.93;2.13;;;;;;;3.09;73.16;100921.96;1758013;81;21009;-76
2022/04/11 03:20:08;;;;;;;6.73;2.17;;;;;;;3.07;73.22;100923.67;1752378;81;21084;-76
2022/04/11 03:22:37;;;;;;;8.95;2.60;;;;;;;3.07;73.22;100932.73;1750433;81;26516;-76
2022/04/11 03:25:08;;;;;;;7.20;2.30;;;;;;;3.04;73.25;100931.00;1748087;81;21084;-76
2022/04/11 03:27:36;;;;;;;5.00;1.85;;;;;;;3.01;73.21;100932.30;1750837;81;21012;-76
2022/04/11 03:30:04;;;;;;;5.83;2.10;;;;;;;2.99;73.19;100928.83;1753428;81;21061;-77
2022/04/11 03:32:32;;;;;;;6.53;2.30;;;;;;;2.96;73.25;100939.19;1720796;81;21129;-77
2022/04/11 03:35:00;;;;;;;4.47;1.83;;;;;;;2.96;73.29;100938.33;1746982;81;21672;-76
2022/04/11 03:37:28;;;;;;;5.17;2.20;;;;;;;2.93;73.29;100946.09;1750435;81;21964;-76
2022/04/11 03:39:57;;;;;;;6.90;2.40;;;;;;;2.93;73.30;100943.50;1755502;81;21021;-76
2022/04/11 03:42:25;;;;;;;5.73;2.20;;;;;;;2.91;73.31;100947.39;1751463;81;21483;-76
2022/04/11 03:44:52;;;;;;;4.93;2.10;;;;;;;2.88;73.36;100943.47;1749736;81;21021;-77
2022/04/11 03:47:19;;;;;;;5.27;2.10;;;;;;;2.87;73.41;100949.08;1749322;81;21036;-76
2022/04/11 03:49:47;;;;;;;4.43;1.90;;;;;;;2.87;73.48;100951.67;1752406;81;21117;-76
2022/04/11 03:52:16;;;;;;;3.83;2.37;;;;;;;2.88;73.57;100952.53;1750355;81;21005;-75
2022/04/11 03:54:43;;;;;;;8.53;2.40;;;;;;;2.90;73.64;100950.39;1755849;81;20984;-75
2022/04/11 03:57:11;;;;;;;5.53;1.77;;;;;;;2.92;73.64;100951.70;1755882;81;21086;-87
2022/04/11 03:59:38;;;;;;;5.43;1.83;;;;;;;2.92;73.64;100945.23;1750038;81;21139;-75
2022/04/11 04:02:05;;;;;;;6.17;1.77;;;;;;;2.92;73.54;100943.08;1750335;80;22038;-88
2022/04/11 04:04:33;;;;;;;4.57;2.07;;;;;;;2.89;73.47;100949.96;1742661;80;21028;-76
2022/04/11 04:07:00;;;;;;;7.10;2.27;;;;;;;2.88;73.54;100953.83;1754581;80;21025;-76
2022/04/11 04:09:27;;;;;;;6.83;2.40;;;;;;;2.85;73.46;100953.39;1747104;81;21145;-75
2022/04/11 04:11:54;;;;;;;5.23;1.97;;;;;;;2.83;73.60;100962.89;1750372;81;21011;-75
2022/04/11 04:14:26;;;;;;;4.60;1.70;;;;;;;2.82;73.61;100962.87;1743912;81;21215;-75
2022/04/11 04:16:54;;;;;;;7.30;2.00;;;;;;;2.81;73.52;100958.57;1759223;81;21002;-78
2022/04/11 04:19:26;;;;;;;6.73;1.97;;;;;;;2.78;73.60;100964.59;1758412;81;21475;-86
2022/04/11 04:21:53;;;;;;;5.63;2.23;;;;;;;2.77;73.60;100969.75;1750048;81;21024;-76
2022/04/11 04:24:22;;;;;;;4.77;2.27;;;;;;;2.76;73.59;100970.19;1754527;81;21004;-86
2022/04/11 04:26:49;;;;;;;6.77;2.40;;;;;;;2.75;73.68;100968.91;1749474;81;21529;-84
2022/04/11 04:29:16;;;;;;;7.47;2.30;;;;;;;2.75;73.71;100970.20;1728359;81;21188;-76
2022/04/11 04:31:47;;;;;;;8.47;2.57;;;;;;;2.77;73.74;100977.52;1703392;82;21452;-76
2022/04/11 04:34:14;;;;;;;5.07;1.83;;;;;;;2.77;73.81;100977.52;1703643;82;21030;-75
2022/04/11 04:36:42;;;;;;;4.33;1.83;;;;;;;2.78;73.87;100980.56;1734848;81;21494;-76
2022/04/11 04:39:09;;;;;;;7.83;2.00;;;;;;;2.77;73.80;100981.40;1728637;82;21189;-76
2022/04/11 04:41:38;;;;;;;4.73;2.60;;;;;;;2.79;73.80;100980.98;1721727;82;21502;-77
2022/04/11 04:44:06;;;;;;;5.47;1.97;;;;;;;2.78;73.86;100987.89;1729116;81;21124;-76
2022/04/11 04:46:34;;;;;;;5.97;2.47;;;;;;;2.79;73.90;100985.73;1746001;81;21067;-76
2022/04/11 04:49:03;;;;;;;6.87;2.33;;;;;;;2.82;73.86;100987.47;1742558;81;21036;-76
2022/04/11 04:51:30;;;;;;;12.87;5.17;;;;;;;2.82;73.83;100991.35;1745754;81;22122;-76
2022/04/11 04:53:59;;;;;;;6.77;2.77;;;;;;;2.82;73.85;100993.51;1742090;80;21181;-75
2022/04/11 04:56:28;;;;;;;8.30;2.40;;;;;;;2.84;73.97;100990.94;1744277;80;21009;-77
2022/04/11 04:58:57;;;;;;;4.42;2.80;;;;;;;2.85;73.97;101006.46;1749270;81;21009;-75
2022/04/11 05:01:24;;;;;;;7.23;3.93;;;;;;;2.89;74.01;101008.66;1728646;80;20999;-76
2022/04/11 05:03:52;;;;;;;5.30;2.37;;;;;;;2.93;73.94;101007.80;1748141;81;21142;-75
2022/04/11 05:06:22;;;;;;;10.67;4.10;;;;;;;2.95;73.95;101011.27;1732434;81;20979;-75
2022/04/11 05:08:49;;;;;;;9.50;4.53;;;;;;;2.99;73.99;101009.11;1725576;82;21529;-74
2022/04/11 05:11:16;;;;;;;6.73;2.20;;;;;;;3.04;74.07;101011.72;1723593;82;20986;-75
2022/04/11 05:13:44;;;;;;;7.00;1.77;;;;;;;3.07;73.95;101020.80;1715085;82;21129;-79
2022/04/11 05:16:12;;;;;;;6.13;1.90;;;;;;;3.08;73.92;101016.93;1717515;82;21049;-75
2022/04/11 05:18:39;;;;;;;6.03;2.00;;;;;;;3.11;73.92;101021.27;1730779;81;21001;-74
2022/04/11 05:21:06;;;;;;;5.17;1.80;;;;;;;3.14;73.89;101019.97;1717341;82;20997;-75
2022/04/11 05:23:35;;;;;;;5.73;1.90;;;;;;;3.16;73.92;101020.84;1749158;80;21012;-75
2022/04/11 05:26:05;;;;;;;6.93;2.07;;;;;;;3.20;73.87;101021.28;1759436;80;21080;-75
2022/04/11 05:28:32;;;;;;;8.50;2.00;;;;;;;3.23;73.83;101016.11;1764361;80;21132;-75
2022/04/11 05:31:01;;;;;;;6.77;1.93;;;;;;;3.27;73.83;101017.86;1756680;80;21008;-78
2022/04/11 05:33:28;;;;;;;2.83;1.80;;;;;;;3.31;73.79;101020.88;1729008;80;21426;-74
2022/04/11 05:36:01;;;;;;;5.20;2.00;;;;;;;3.34;73.87;101011.81;1752639;81;21063;-83
2022/04/11 05:38:25;;;;;;;7.35;1.90;;;;;;;3.41;73.89;101017.00;1750472;80;21052;-75
2022/04/11 05:40:53;;;;;;;6.20;1.87;;;;;;;3.47;73.90;101014.45;1745164;81;21065;-74
2022/04/11 05:43:22;;;;;;;6.23;1.93;;;;;;;3.55;73.89;101022.67;1748333;81;21084;-75
2022/04/11 05:45:49;;;;;;;8.07;2.63;;;;;;;3.63;73.87;101018.80;1739596;81;21088;-81
2022/04/11 05:48:16;;;;;;;9.03;2.00;;;;;;;3.72;73.82;101023.98;1709384;83;21485;-75
2022/04/11 05:50:44;;;;;;;6.63;1.80;;;;;;;3.80;73.75;101011.03;1745919;81;21470;-80
2022/04/11 05:53:11;;;;;;;6.17;2.13;;;;;;;3.87;73.70;101015.78;1757608;81;21146;-75
2022/04/11 05:55:39;;;;;;;6.33;2.00;;;;;;;3.94;73.59;101020.11;1742152;80;20993;-74
2022/04/11 05:58:06;;;;;;;5.63;1.80;;;;;;;3.99;73.42;101017.06;1750145;80;21016;-74
2022/04/11 06:00:34;;;;;;;6.20;1.80;;;;;;;4.03;73.37;101024.85;1749887;81;21524;-74
2022/04/11 06:03:01;;;;;;;4.17;2.00;;;;;;;4.06;73.23;101016.20;1742594;81;21021;-73
2022/04/11 06:05:28;;;;;;;5.60;2.27;;;;;;;4.07;73.06;101019.22;1751619;80;21116;-74
2022/04/11 06:07:56;;;;;;;5.90;2.30;;;;;;;4.08;73.03;101023.56;1753273;81;21079;-74
2022/04/11 06:10:23;;;;;;;5.53;2.20;;;;;;;4.07;72.92;101015.33;1737383;80;21198;-78
2022/04/11 06:12:50;;;;;;;6.77;2.07;;;;;;;4.05;72.78;101022.27;1758244;80;21536;-75
2022/04/11 06:15:18;;;;;;;6.10;2.07;;;;;;;4.02;72.64;101018.39;1733199;81;21098;-74
2022/04/11 06:17:47;;;;;;;9.70;1.90;;;;;;;4.01;72.64;101023.13;1751952;81;21047;-74
2022/04/11 06:20:14;;;;;;;5.67;1.90;;;;;;;4.00;72.68;101023.56;1742353;81;20937;-74
2022/04/11 06:22:41;;;;;;;7.10;2.20;;;;;;;4.04;72.66;101020.52;1727124;81;21016;-75
2022/04/11 06:25:09;;;;;;;6.33;2.30;;;;;;;4.07;72.67;101025.70;1726303;82;20969;-75
2022/04/11 06:27:37;;;;;;;6.17;2.00;;;;;;;4.13;72.74;101023.13;1728604;81;21065;-74
2022/04/11 06:30:07;;;;;;;7.93;2.20;;;;;;;4.24;72.75;101027.88;1728819;82;21361;-77
2022/04/11 06:32:35;;;;;;;5.60;1.80;;;;;;;4.39;72.69;101026.98;1721158;82;21028;-75
2022/04/11 06:35:03;;;;;;;7.97;2.43;;;;;;;4.57;72.76;101027.81;1729337;82;21017;-74
2022/04/11 06:37:30;;;;;;;5.50;2.13;;;;;;;4.70;72.42;101030.37;1728556;82;21004;-74
2022/04/11 06:39:59;;;;;;;8.27;1.90;;;;;;;4.80;72.17;101029.92;1723787;82;21103;-76
2022/04/11 06:42:27;;;;;;;8.07;1.87;;;;;;;4.91;72.03;101025.99;1728394;81;21773;-75
2022/04/11 06:44:54;;;;;;;4.53;1.83;;;;;;;5.03;71.85;101033.72;1747916;80;21541;-74
2022/04/11 06:47:24;;;;;;;6.70;1.47;;;;;;;5.12;71.59;101030.22;1727771;81;21276;-73
2022/04/11 06:49:53;;;;;;;4.93;1.47;;;;;;;5.19;71.35;101024.13;1723217;82;22459;-74
2022/04/11 06:52:19;;;;;;;5.83;1.30;;;;;;;5.24;71.04;101025.42;1718838;82;21035;-73
2022/04/11 06:54:46;;;;;;;5.13;2.00;;;;;;;5.23;70.64;101018.03;1735850;81;22022;-74
2022/04/11 06:57:13;;;;;;;5.93;2.30;;;;;;;5.20;70.48;101024.55;1734230;82;21013;-73
2022/04/11 06:59:40;;;;;;;6.50;1.73;;;;;;;5.17;70.25;101021.97;1734307;82;21514;-74
2022/04/11 07:02:07;;;;;;;6.03;1.90;;;;;;;5.14;70.13;101025.88;1734456;82;21004;-74
2022/04/11 07:04:35;;;;;;;6.07;1.90;;;;;;;5.10;70.08;101030.24;1733271;82;21046;-73
2022/04/11 07:07:01;;;;;;;5.83;1.50;;;;;;;5.07;69.93;101028.96;1737189;82;22007;-75
2022/04/11 07:09:31;;;;;;;2.67;1.23;;;;;;;5.07;69.88;101028.07;1735774;82;20984;-75
2022/04/11 07:11:58;;;;;;;6.30;1.80;;;;;;;5.11;69.87;101037.59;1734775;82;21463;-73
2022/04/11 07:14:25;;;;;;;3.90;1.37;;;;;;;5.14;69.93;101039.73;1735884;82;20992;-74
2022/04/11 07:16:52;;;;;;;4.43;1.23;;;;;;;5.23;69.93;101035.37;1735533;82;21182;-73
2022/04/11 07:19:20;;;;;;;5.50;1.77;;;;;;;5.29;69.67;101036.63;1734666;82;21333;-72
2022/04/11 07:21:47;;;;;;;5.93;1.50;;;;;;;5.37;69.92;101034.86;1714736;82;20964;-74
2022/04/11 07:24:14;;;;;;;10.13;1.70;;;;;;;5.42;69.60;101034.84;1737194;81;21047;-74
2022/04/11 07:26:41;;;;;;;5.43;1.50;;;;;;;5.46;69.40;101032.23;1736273;81;21553;-73
2022/04/11 07:29:09;;;;;;;6.97;1.80;;;;;;;5.53;69.46;101030.44;1732258;82;21056;-73
2022/04/11 07:31:36;;;;;;;6.10;1.70;;;;;;;5.62;69.50;101038.61;1735297;82;21147;-73
2022/04/11 07:34:03;;;;;;;6.20;2.50;;;;;;;5.71;69.40;101024.23;1736319;82;21604;-73
2022/04/11 07:36:30;;;;;;;6.47;2.17;;;;;;;5.79;69.13;101027.64;1736054;82;21016;-73
2022/04/11 07:38:58;;;;;;;12.90;4.53;;;;;;;5.87;68.99;101026.30;1713648;82;20996;-74
2022/04/11 07:41:25;;;;;;;4.47;1.50;;;;;;;5.96;68.82;101033.64;1737981;81;20964;-73
2022/04/11 07:43:58;;;;;;;6.07;1.80;;;;;;;6.07;68.71;101036.16;1737089;82;22019;-74
2022/04/11 07:46:21;;;;;;;5.43;1.77;;;;;;;6.15;68.55;101032.16;1734611;81;21545;-73
2022/04/11 07:48:48;;;;;;;5.63;1.67;;;;;;;6.24;68.36;101034.71;1734805;82;21059;-75
2022/04/11 07:51:15;;;;;;;6.70;1.50;;;;;;;6.29;67.95;101032.94;1740647;81;21134;-74
2022/04/11 07:53:42;;;;;;;4.77;1.63;;;;;;;6.33;67.76;101037.22;1755942;80;21146;-74
2022/04/11 07:56:08;;;;;;;3.97;1.73;;;;;;;6.38;67.65;101034.59;1730501;82;21166;-74
2022/04/11 07:58:35;;;;;;;9.00;1.90;;;;;;;6.45;67.63;101034.48;1759926;80;21465;-74
2022/04/11 08:01:02;;;;;;;8.73;1.87;;;;;;;6.55;67.50;101037.88;1749673;80;21357;-74
2022/04/11 08:03:29;;;;;;;5.63;1.70;;;;;;;6.58;66.87;101036.53;1721831;83;21012;-74
2022/04/11 08:05:57;;;;;;;5.70;1.60;;;;;;;6.63;66.72;101036.05;1716903;83;21038;-75
2022/04/11 08:08:24;;;;;;;6.77;1.90;;;;;;;6.73;66.92;101034.19;1760955;81;21136;-75
2022/04/11 08:10:51;;;;;;;6.17;1.80;;;;;;;6.81;66.39;101039.33;1722397;82;21066;-75
2022/04/11 08:13:18;;;;;;;7.83;2.17;;;;;;;6.84;66.06;101038.84;1716422;82;21125;-75
2022/04/11 08:15:45;;;;;;;9.17;3.03;;;;;;;6.91;65.97;101052.69;1690822;83;21016;-80
2022/04/11 08:18:12;;;;;;;9.47;2.40;;;;;;;7.01;65.74;101043.89;1720040;82;21084;-75
2022/04/11 08:20:39;;;;;;;3.00;1.47;;;;;;;7.14;65.55;101047.19;1700632;83;21126;-75
2022/04/11 08:23:07;;;;;;;5.13;1.97;;;;;;;7.23;65.14;101050.11;1700072;83;21186;-74
2022/04/11 08:25:34;;;;;;;5.27;1.80;;;;;;;7.30;64.99;101049.17;1720819;82;21017;-77
2022/04/11 08:28:03;;;;;;;5.13;1.90;;;;;;;7.40;64.58;101051.19;1753146;80;21077;-76
2022/04/11 08:30:31;;;;;;;3.47;1.73;;;;;;;7.47;64.21;101059.37;1753434;81;21296;-75
2022/04/11 08:32:58;;;;;;;3.80;1.60;;;;;;;7.44;63.06;101046.38;1761861;81;21274;-75
2022/04/11 08:35:25;;;;;;;4.87;1.60;;;;;;;7.51;63.04;101051.48;1720237;82;20967;-75
2022/04/11 08:37:53;;;;;;;3.30;1.70;;;;;;;7.62;62.83;101053.95;1763977;80;21048;-75
2022/04/11 08:40:21;;;;;;;2.87;1.07;;;;;;;7.67;62.46;101048.20;1751783;80;21021;-75
2022/04/11 08:42:51;;;;;;;5.37;1.70;;;;;;;7.76;62.50;101041.56;1754925;80;21158;-75
2022/04/11 08:45:22;;;;;;;3.02;0.93;;;;;;;7.88;61.69;101053.55;1749436;80;21896;-75
2022/04/11 08:47:56;;;;;;;2.83;1.13;;;;;;;7.95;61.14;101044.75;1750842;80;21464;-74
2022/04/11 08:50:21;;;;;;;2.97;1.10;;;;;;;8.05;61.27;101039.78;1716826;82;21464;-74
2022/04/11 08:52:53;;;;;;;3.30;1.30;;;;;;;8.19;60.84;101040.85;1759381;80;21604;-74
2022/04/11 08:55:24;;;;;;;2.33;0.90;;;;;;;8.33;60.64;101045.84;1720058;82;21562;-74
2022/04/11 08:57:51;;;;;;;2.07;0.90;;;;;;;8.39;59.97;101040.98;1708986;83;21218;-74
2022/04/11 09:00:20;;;;;;;3.00;1.20;;;;;;;8.41;59.37;101044.44;1754451;81;21529;-74
2022/04/11 09:02:48;;;;;;;2.60;1.13;;;;;;;8.53;59.29;101045.51;1716449;82;21000;-74
2022/04/11 09:05:27;;;;;;;3.75;1.15;;;;;;;8.65;58.95;101043.99;1747950;81;21588;-74
2022/04/11 09:07:57;;;;;;;8.10;2.97;;;;;;;8.75;58.48;101052.95;1717110;82;21083;-74
2022/04/11 09:10:32;;;;;;;8.23;3.23;;;;;;;8.71;57.91;101049.09;1712181;82;21178;-74
2022/04/11 09:13:06;;;;;;;11.03;2.80;;;;;;;8.69;57.87;101050.87;1759030;81;21017;-75
2022/04/11 09:15:42;;;;;;;5.45;1.80;;;;;;;8.64;57.36;101052.70;1739724;80;21016;-75
2022/04/11 09:18:09;;;;;;;10.03;2.27;;;;;;;8.53;56.75;101055.11;1755873;80;20988;-74
2022/04/11 09:20:41;;;;;;;3.30;1.70;;;;;;;8.43;56.57;101050.50;1749800;80;21001;-81
2022/04/11 09:23:21;;;;;;;3.30;1.30;;;;;;;8.57;56.66;101051.56;1753121;80;21131;-74
2022/04/11 09:25:49;;;;;;;7.50;2.87;;;;;;;8.80;56.48;101045.45;1749152;80;20985;-74
2022/04/11 09:28:16;;;;;;;6.73;2.43;;;;;;;8.99;56.07;101048.56;1753663;80;21044;-74
2022/04/11 09:30:43;;;;;;;6.53;1.70;;;;;;;9.08;55.94;101047.06;1728562;80;21055;-74
2022/04/11 09:33:12;;;;;;;6.03;1.40;;;;;;;9.19;55.27;101056.45;1724665;82;21056;-74
2022/04/11 09:35:47;;;;;;;4.30;1.77;;;;;;;9.32;55.23;101048.31;1718656;82;21167;-75
2022/04/11 09:38:18;;;;;;;4.27;1.00;;;;;;;9.47;54.68;101044.48;1727596;80;21072;-74
2022/04/11 09:40:56;;;;;;;3.67;1.50;;;;;;;9.54;54.35;101048.70;1751923;81;21036;-85
2022/04/11 09:43:30;;;;;;;8.20;2.33;;;;;;;9.50;53.90;101044.86;1745679;81;21050;-75
2022/04/11 09:46:03;;;;;;;3.23;1.37;;;;;;;9.58;54.07;101047.72;1735710;81;20991;-75
2022/04/11 09:48:32;;;;;;;4.37;1.50;;;;;;;9.53;53.62;101043.06;1730532;82;21189;-75
2022/04/11 09:51:00;;;;;;;5.87;1.77;;;;;;;9.42;53.56;101041.10;1735710;82;21530;-74
2022/04/11 09:53:32;;;;;;;3.80;1.50;;;;;;;9.33;53.63;101034.32;1734676;81;21002;-74
2022/04/11 09:56:06;;;;;;;4.10;1.60;;;;;;;9.28;53.61;101032.70;1742009;81;21013;-75
2022/04/11 09:58:36;;;;;;;5.40;1.77;;;;;;;9.22;53.54;101037.62;1739180;80;20981;-80
2022/04/11 10:01:05;;;;;;;5.28;2.17;;;;;;;9.26;53.35;101030.59;1732145;81;21545;-82
2022/04/11 10:03:33;;;;;;;6.27;1.70;;;;;;;9.29;53.08;101031.38;1730915;81;21054;-81
2022/04/11 10:06:01;;;;;;;4.20;1.50;;;;;;;9.27;52.96;101027.06;1703649;82;21117;-76
2022/04/11 10:08:28;;;;;;;7.07;2.57;;;;;;;9.23;52.83;101028.01;1715310;82;20994;-74
2022/04/11 10:10:56;;;;;;;5.00;1.90;;;;;;;9.23;53.07;101031.52;1724073;82;21034;-74
2022/04/11 10:13:24;;;;;;;4.33;1.70;;;;;;;9.28;53.04;101031.39;1720908;82;21218;-76
2022/04/11 10:15:51;;;;;;;6.00;1.90;;;;;;;9.23;52.84;101028.89;1749575;81;21448;-75
2022/04/11 10:18:28;;;;;;;2.60;1.83;;;;;;;9.25;52.96;101033.63;1719494;81;21474;-74
2022/04/11 10:21:01;;;;;;;4.60;2.10;;;;;;;9.22;53.18;101036.77;1729566;81;20990;-74
2022/04/11 10:23:45;;;;;;;4.00;2.00;;;;;;;9.20;53.19;101033.31;1739446;80;21326;-76
2022/04/11 10:26:18;;;;;;;4.27;1.60;;;;;;;9.20;53.16;101032.00;1744845;81;21117;-74
2022/04/11 10:28:48;;;;;;;2.90;1.63;;;;;;;9.28;53.12;101029.63;1754357;80;20965;-74
2022/04/11 10:31:16;;;;;;;3.53;1.90;;;;;;;9.29;52.80;101031.38;1754804;80;21036;-74
2022/04/11 10:33:55;;;;;;;6.97;2.03;;;;;;;9.18;52.35;101030.74;1755458;80;20941;-73
2022/04/11 10:36:36;;;;;;;3.83;1.40;;;;;;;9.08;52.12;101034.44;1745040;80;21648;-75
2022/04/11 10:39:22;;;;;;;4.23;1.87;;;;;;;8.97;52.01;101027.26;1759651;80;21092;-74
2022/04/11 10:42:02;;;;;;;6.37;1.80;;;;;;;8.98;52.19;101026.35;1760385;80;21618;-73
2022/04/11 10:44:40;;;;;;;5.37;1.20;;;;;;;9.15;52.28;101035.59;1750288;81;20993;-73
2022/04/11 10:47:18;;;;;;;2.57;1.00;;;;;;;9.29;51.89;101026.14;1734066;81;21091;-74
2022/04/11 10:49:57;;;;;;;4.73;1.00;;;;;;;9.41;51.54;101026.31;1758590;80;21044;-75
2022/04/11 10:52:32;;;;;;;1.83;0.97;;;;;;;9.49;51.17;101023.08;1724311;81;21203;-74
2022/04/11 10:55:14;;;;;;;2.10;0.80;;;;;;;9.52;50.86;101014.30;1741456;81;21008;-74
2022/04/11 10:57:46;;;;;;;4.87;1.00;;;;;;;9.60;50.95;101017.15;1736069;81;21067;-80
2022/04/11 11:00:20;;;;;;;3.43;1.23;;;;;;;9.63;50.80;101018.84;1738298;81;21009;-74
2022/04/11 11:02:57;;;;;;;2.70;1.00;;;;;;;9.68;50.58;101023.52;1737085;81;21464;-74
2022/04/11 11:05:38;;;;;;;2.70;1.20;;;;;;;9.94;50.18;101012.87;1741029;81;21100;-74
2022/04/11 11:08:15;;;;;;;2.00;0.70;;;;;;;9.95;49.25;101002.79;1739657;81;21065;-74
2022/04/11 11:10:59;;;;;;;2.87;1.10;;;;;;;9.82;49.06;101005.72;1735255;81;21091;-74
2022/04/11 11:13:39;;;;;;;2.67;1.03;;;;;;;9.71;48.97;101005.12;1737990;81;21578;-74
2022/04/11 11:16:14;;;;;;;2.73;1.40;;;;;;;9.66;49.00;101005.67;1744620;81;21045;-74
2022/04/11 11:18:52;;;;;;;3.43;1.30;;;;;;;9.65;49.05;101003.97;1743418;81;21066;-75
2022/04/11 11:21:44;;;;;;;4.30;1.37;;;;;;;9.61;48.90;100993.14;1737886;81;20924;-74
2022/04/11 11:24:11;;;;;;;3.67;2.03;;;;;;;9.56;49.00;100989.77;1739612;81;20997;-74
2022/04/11 11:26:47;;;;;;;2.33;1.10;;;;;;;9.82;49.37;100992.63;1747776;81;21617;-73
2022/04/11 11:29:32;;;;;;;2.63;1.20;;;;;;;10.55;49.60;100982.48;1743403;81;21509;-76
2022/04/11 11:32:04;;;;;;;1.30;0.88;;;;;;;11.48;49.25;100983.27;1737545;81;21171;-77
2022/04/11 11:34:37;;;;;;;1.85;0.72;;;;;;;12.10;48.06;100978.20;1741539;81;20941;-74
2022/04/11 11:37:12;;;;;;;1.85;0.75;;;;;;;12.22;47.57;100974.70;1739673;81;20994;-75
2022/04/11 11:39:43;;;;;;;2.55;0.80;;;;;;;12.23;46.81;100973.78;1742150;81;21076;-74
2022/04/11 11:42:14;;;;;;;2.50;0.98;;;;;;;12.21;46.62;100973.43;1743369;81;21561;-78